Time;durP1;ratioP1;P1;durP2;ratioP2;P2;SDS_P1;SDS_P2;PMS_P1;PMS_P2;Temp;Humidity;BMP_temperature;BMP_pressure;BME280_temperature;BME280_humidity;BME280_pressure;Samples;Min_cycle;Max_cycle;Signal;HPM_P1;HPM_P2
2022/02/20 00:01:28;;;;;;;4.40;1.33;;;5.00;97.30;;;;;;5056820;28;20175;-85
2022/02/20 00:03:53;;;;;;;2.30;1.50;;;5.00;97.30;;;;;;5057470;28;20424;-85
2022/02/20 00:06:19;;;;;;;5.37;2.77;;;4.90;97.30;;;;;;5062832;28;20199;-86
2022/02/20 00:08:45;;;;;;;4.43;1.77;;;4.90;97.30;;;;;;5075199;28;20532;-85
2022/02/20 00:11:10;;;;;;;2.03;1.33;;;4.90;97.30;;;;;;5058672;28;20552;-85
2022/02/20 00:13:36;;;;;;;11.70;2.07;;;4.80;97.30;;;;;;5056547;28;20199;-86
2022/02/20 00:16:02;;;;;;;4.23;1.80;;;4.70;97.30;;;;;;5073766;28;20186;-86
2022/02/20 00:18:27;;;;;;;3.37;1.73;;;4.70;97.30;;;;;;5056315;28;20199;-85
2022/02/20 00:20:53;;;;;;;4.43;1.70;;;4.70;97.30;;;;;;5056283;28;20402;-86
2022/02/20 00:23:19;;;;;;;2.40;1.80;;;4.60;97.30;;;;;;5055888;28;20719;-86
2022/02/20 00:25:45;;;;;;;4.00;1.80;;;4.60;97.30;;;;;;5056003;28;20172;-86
2022/02/20 00:28:12;;;;;;;4.63;1.50;;;4.60;97.30;;;;;;5074469;28;20626;-87
2022/02/20 00:30:37;;;;;;;2.13;1.77;;;4.60;97.30;;;;;;5056071;28;20428;-86
2022/02/20 00:33:03;;;;;;;8.00;1.80;;;4.60;97.30;;;;;;5056296;28;20636;-87
2022/02/20 00:35:32;;;;;;;6.23;1.67;;;4.50;97.30;;;;;;5056224;28;20175;-86
2022/02/20 00:37:57;;;;;;;2.17;1.90;;;4.50;97.30;;;;;;5055737;28;20865;-87
2022/02/20 00:40:24;;;;;;;2.10;1.47;;;4.40;97.30;;;;;;5056062;28;20410;-86
2022/02/20 00:42:50;;;;;;;5.80;1.50;;;4.40;97.30;;;;;;5055703;28;20956;-87
2022/02/20 00:45:15;;;;;;;4.37;1.40;;;4.40;97.30;;;;;;5055723;28;20576;-86
2022/02/20 00:47:41;;;;;;;3.23;1.60;;;4.40;97.30;;;;;;5056201;28;20931;-86
2022/02/20 00:50:08;;;;;;;3.87;1.40;;;4.40;97.30;;;;;;5055270;28;20175;-86
2022/02/20 00:52:33;;;;;;;4.33;1.83;;;4.40;97.30;;;;;;5055138;28;20433;-86
2022/02/20 00:54:59;;;;;;;2.07;1.33;;;4.40;97.30;;;;;;5055160;28;20440;-86
2022/02/20 00:57:24;;;;;;;2.57;1.67;;;4.40;97.30;;;;;;5055218;28;20198;-85
2022/02/20 00:59:50;;;;;;;1.90;1.43;;;4.40;97.30;;;;;;5055635;28;20205;-85
2022/02/20 01:02:15;;;;;;;5.30;1.47;;;4.40;97.30;;;;;;5055340;28;20721;-86
2022/02/20 01:04:41;;;;;;;1.60;1.50;;;4.40;97.30;;;;;;5055007;28;20232;-86
2022/02/20 01:07:07;;;;;;;10.50;1.80;;;4.50;97.30;;;;;;5055110;28;20219;-86
2022/02/20 01:09:32;;;;;;;3.97;1.67;;;4.50;97.30;;;;;;5055060;28;20179;-86
2022/02/20 01:11:58;;;;;;;4.20;1.63;;;4.50;97.30;;;;;;5054893;28;20198;-87
2022/02/20 01:14:23;;;;;;;4.30;1.50;;;4.50;97.30;;;;;;5055069;28;20752;-84
2022/02/20 01:16:48;;;;;;;28.80;2.00;;;4.50;97.30;;;;;;5054739;28;20322;-86
2022/02/20 01:19:14;;;;;;;2.00;1.40;;;4.50;97.30;;;;;;5054829;28;20610;-85
2022/02/20 01:21:40;;;;;;;6.10;1.63;;;4.60;97.30;;;;;;5054410;28;20182;-87
2022/02/20 01:24:06;;;;;;;5.53;1.93;;;4.50;97.30;;;;;;5054555;28;20660;-87
2022/02/20 01:26:31;;;;;;;2.40;1.30;;;4.50;97.30;;;;;;5054607;28;20224;-87
2022/02/20 01:28:57;;;;;;;4.40;1.40;;;4.40;97.30;;;;;;5054733;28;20509;-86
2022/02/20 01:31:22;;;;;;;3.00;1.60;;;4.40;97.30;;;;;;5054380;28;20177;-86
2022/02/20 01:33:48;;;;;;;2.30;1.40;;;4.40;97.30;;;;;;5054749;28;20194;-86
2022/02/20 01:36:15;;;;;;;1.90;1.37;;;4.40;97.30;;;;;;5054638;28;20189;-86
2022/02/20 01:38:40;;;;;;;7.23;2.00;;;4.40;97.30;;;;;;5072202;28;20588;-86
2022/02/20 01:41:06;;;;;;;1.77;1.30;;;4.40;97.30;;;;;;5054475;28;20433;-86
2022/02/20 01:43:31;;;;;;;2.83;1.60;;;4.50;97.30;;;;;;5054842;28;20230;-86
2022/02/20 01:45:57;;;;;;;1.77;1.30;;;4.50;97.30;;;;;;5054265;28;20206;-86
2022/02/20 01:48:22;;;;;;;3.00;1.30;;;4.50;97.30;;;;;;5054275;28;20228;-86
2022/02/20 01:50:49;;;;;;;1.30;1.20;;;4.50;97.30;;;;;;5054562;28;20258;-87
2022/02/20 01:53:14;;;;;;;2.40;1.37;;;4.50;97.30;;;;;;5054355;28;20222;-87
2022/02/20 01:55:40;;;;;;;2.03;1.03;;;4.50;97.30;;;;;;5054383;28;20498;-86
2022/02/20 01:58:05;;;;;;;1.97;1.30;;;4.50;97.30;;;;;;5054535;28;20229;-87
2022/02/20 02:00:32;;;;;;;4.37;1.60;;;4.60;97.30;;;;;;5059899;28;20171;-86
2022/02/20 02:02:57;;;;;;;1.57;1.10;;;4.60;97.30;;;;;;5054221;28;20545;-86
2022/02/20 02:05:23;;;;;;;4.20;1.23;;;4.70;97.30;;;;;;5054606;28;20416;-86
2022/02/20 02:07:51;;;;;;;1.43;1.20;;;4.70;97.30;;;;;;5072263;28;20179;-86
2022/02/20 02:10:17;;;;;;;2.03;1.17;;;4.70;97.30;;;;;;5054481;28;20187;-86
2022/02/20 02:12:42;;;;;;;1.37;1.27;;;4.80;97.30;;;;;;5054033;28;20444;-85
2022/02/20 02:15:10;;;;;;;1.20;1.10;;;4.90;97.30;;;;;;5054785;28;20179;-85
2022/02/20 02:17:35;;;;;;;1.73;1.23;;;5.10;97.30;;;;;;5054479;28;20198;-86
2022/02/20 02:20:02;;;;;;;1.10;1.00;;;5.10;97.30;;;;;;5054437;28;20771;-85
2022/02/20 02:22:29;;;;;;;5.23;1.67;;;5.10;97.30;;;;;;5053978;28;20674;-86
2022/02/20 02:24:56;;;;;;;1.20;1.20;;;5.10;97.30;;;;;;5072097;28;20410;-86
2022/02/20 02:27:22;;;;;;;1.27;1.03;;;5.00;97.30;;;;;;5054158;28;20405;-87
2022/02/20 02:29:49;;;;;;;1.53;1.27;;;4.90;97.30;;;;;;5054455;28;20983;-85
2022/02/20 02:32:15;;;;;;;5.53;1.77;;;4.90;97.30;;;;;;5054189;28;20504;-86
2022/02/20 02:34:43;;;;;;;1.37;1.23;;;4.80;97.30;;;;;;5054306;28;20420;-86
2022/02/20 02:37:08;;;;;;;6.10;1.40;;;4.80;97.30;;;;;;5073743;28;20455;-86
2022/02/20 02:39:34;;;;;;;1.43;1.10;;;4.70;97.30;;;;;;5059678;28;20488;-85
2022/02/20 02:42:00;;;;;;;4.93;1.37;;;4.70;97.30;;;;;;5057465;28;20199;-86
2022/02/20 02:44:26;;;;;;;2.97;1.07;;;4.70;97.30;;;;;;5057559;28;20265;-86
2022/02/20 02:46:52;;;;;;;3.53;1.70;;;4.80;97.30;;;;;;5057430;28;20489;-86
2022/02/20 02:49:17;;;;;;;3.03;1.27;;;4.90;97.30;;;;;;5058168;28;20175;-85
2022/02/20 02:51:43;;;;;;;1.77;1.20;;;4.90;97.30;;;;;;5057841;28;20203;-85
2022/02/20 02:54:11;;;;;;;1.57;1.10;;;5.00;97.30;;;;;;5075879;28;20221;-86
2022/02/20 02:56:37;;;;;;;2.83;1.30;;;5.10;97.30;;;;;;5057900;28;20175;-86
2022/02/20 02:59:04;;;;;;;1.33;1.23;;;5.10;97.30;;;;;;5058452;28;20425;-86
2022/02/20 03:01:30;;;;;;;1.73;1.30;;;5.20;97.30;;;;;;5057215;28;20424;-85
2022/02/20 03:03:56;;;;;;;1.13;1.00;;;5.20;97.30;;;;;;5058174;28;20405;-86
2022/02/20 03:06:23;;;;;;;1.70;0.83;;;5.30;97.30;;;;;;5057184;28;20178;-85
2022/02/20 03:08:49;;;;;;;1.87;1.20;;;5.40;97.30;;;;;;5057562;28;20408;-86
2022/02/20 03:11:14;;;;;;;2.03;1.30;;;5.50;97.30;;;;;;5075383;28;20409;-86
2022/02/20 03:13:40;;;;;;;4.20;1.43;;;5.50;97.30;;;;;;5074994;28;20202;-86
2022/02/20 03:16:06;;;;;;;0.90;0.90;;;5.60;97.30;;;;;;5057430;28;20176;-85
2022/02/20 03:18:32;;;;;;;3.83;1.10;;;5.60;97.30;;;;;;5057479;28;20205;-86
2022/02/20 03:20:59;;;;;;;2.80;1.20;;;5.60;97.30;;;;;;5057688;28;20504;-86
2022/02/20 03:23:25;;;;;;;6.10;1.43;;;5.60;97.30;;;;;;5075144;28;20195;-86
2022/02/20 03:25:51;;;;;;;1.63;1.20;;;5.70;97.30;;;;;;5057355;28;20413;-86
2022/02/20 03:28:17;;;;;;;4.83;1.17;;;5.70;97.30;;;;;;5057565;28;20414;-85
2022/02/20 03:30:42;;;;;;;2.70;1.40;;;5.60;97.30;;;;;;5057336;28;20488;-86
2022/02/20 03:33:08;;;;;;;1.53;1.43;;;5.70;97.30;;;;;;5074874;28;20230;-85
2022/02/20 03:35:34;;;;;;;1.70;1.40;;;5.60;97.30;;;;;;5058026;28;20175;-86
2022/02/20 03:38:00;;;;;;;3.17;1.23;;;5.60;97.30;;;;;;5058416;28;20566;-87
2022/02/20 03:40:25;;;;;;;2.77;1.77;;;5.60;97.30;;;;;;5067478;28;20593;-86
2022/02/20 03:42:51;;;;;;;1.20;1.20;;;5.50;97.30;;;;;;5057327;28;20218;-85
2022/02/20 03:45:17;;;;;;;4.43;1.50;;;5.50;97.30;;;;;;5057259;28;20613;-86
2022/02/20 03:47:42;;;;;;;3.20;1.30;;;5.50;97.30;;;;;;5056748;28;20202;-86
2022/02/20 03:50:08;;;;;;;3.20;1.20;;;5.50;97.30;;;;;;5055306;28;20278;-87
2022/02/20 03:52:34;;;;;;;2.70;1.70;;;5.50;97.30;;;;;;5056155;28;20273;-86
2022/02/20 03:55:00;;;;;;;4.70;1.47;;;5.50;97.30;;;;;;5080191;28;20271;-86
2022/02/20 03:57:25;;;;;;;2.03;0.93;;;5.50;97.30;;;;;;5056277;28;20544;-86
2022/02/20 03:59:51;;;;;;;4.83;1.40;;;5.60;97.30;;;;;;5056339;28;20171;-86
2022/02/20 04:02:17;;;;;;;1.40;1.37;;;5.60;97.30;;;;;;5056226;28;20191;-86
2022/02/20 04:04:42;;;;;;;3.83;1.57;;;5.50;97.30;;;;;;5056708;28;20243;-86
2022/02/20 04:07:08;;;;;;;1.60;1.57;;;5.50;97.30;;;;;;5056276;28;20189;-86
2022/02/20 04:09:33;;;;;;;3.63;1.60;;;5.50;97.30;;;;;;5056228;28;20187;-86
2022/02/20 04:11:59;;;;;;;2.43;1.37;;;5.50;97.30;;;;;;5073899;28;20669;-86
2022/02/20 04:14:24;;;;;;;1.73;1.40;;;5.50;97.30;;;;;;5074273;28;20255;-86
2022/02/20 04:16:50;;;;;;;1.63;1.30;;;5.40;97.30;;;;;;5055797;28;20546;-85
2022/02/20 04:19:15;;;;;;;2.27;1.50;;;5.50;97.30;;;;;;5056130;28;20175;-85
2022/02/20 04:21:41;;;;;;;2.00;1.40;;;5.50;97.30;;;;;;5055772;28;20175;-86
2022/02/20 04:24:06;;;;;;;6.60;1.87;;;5.50;97.30;;;;;;5073679;28;20220;-86
2022/02/20 04:26:32;;;;;;;4.20;1.40;;;5.50;97.30;;;;;;5055837;28;20175;-86
2022/02/20 04:28:58;;;;;;;3.83;1.70;;;5.50;97.30;;;;;;5055780;28;20183;-85
2022/02/20 04:31:23;;;;;;;3.23;1.73;;;5.50;97.30;;;;;;5073600;28;20171;-86
2022/02/20 04:33:49;;;;;;;1.43;1.33;;;5.60;97.30;;;;;;5055796;28;20236;-85
2022/02/20 04:36:14;;;;;;;8.93;2.30;;;5.60;97.30;;;;;;5055585;28;20566;-86
2022/02/20 04:38:40;;;;;;;4.50;1.60;;;5.60;97.30;;;;;;5073526;28;20618;-85
2022/02/20 04:41:06;;;;;;;3.07;1.30;;;5.60;97.30;;;;;;5073429;28;20235;-86
2022/02/20 04:43:32;;;;;;;1.43;1.37;;;5.70;97.30;;;;;;5073446;28;20202;-86
2022/02/20 04:45:57;;;;;;;2.53;1.90;;;5.80;97.30;;;;;;5055552;28;20179;-86
2022/02/20 04:48:23;;;;;;;6.57;2.30;;;5.80;97.30;;;;;;5073377;28;20316;-84
2022/02/20 04:50:49;;;;;;;12.43;1.90;;;5.80;97.30;;;;;;5073499;28;20232;-86
2022/02/20 04:53:14;;;;;;;4.07;1.60;;;5.90;97.30;;;;;;5055335;28;20429;-85
2022/02/20 04:55:40;;;;;;;2.70;1.70;;;5.90;97.30;;;;;;5055477;28;20190;-85
2022/02/20 04:58:05;;;;;;;6.40;1.63;;;5.90;97.30;;;;;;5055027;28;20744;-85
2022/02/20 05:00:31;;;;;;;2.00;1.50;;;5.90;97.30;;;;;;5054986;28;20182;-85
2022/02/20 05:02:56;;;;;;;3.07;1.87;;;6.00;97.30;;;;;;5055021;28;20195;-86
2022/02/20 05:05:22;;;;;;;9.33;1.70;;;6.00;97.30;;;;;;5055154;28;20636;-86
2022/02/20 05:07:47;;;;;;;2.83;1.93;;;6.00;97.30;;;;;;5055112;28;20187;-85
2022/02/20 05:10:13;;;;;;;2.77;1.60;;;6.00;97.30;;;;;;5055512;28;20611;-86
2022/02/20 05:12:39;;;;;;;8.23;1.63;;;6.10;97.30;;;;;;5055040;28;20195;-85
2022/02/20 05:15:04;;;;;;;3.17;1.50;;;6.00;97.30;;;;;;5055185;28;20178;-86
2022/02/20 05:17:30;;;;;;;5.87;2.00;;;6.10;97.30;;;;;;5055029;28;20260;-85
2022/02/20 05:19:56;;;;;;;3.63;1.70;;;6.10;97.30;;;;;;5054946;28;20465;-86
2022/02/20 05:22:21;;;;;;;6.53;2.43;;;6.10;97.30;;;;;;5054467;28;20206;-86
2022/02/20 05:24:50;;;;;;;3.60;1.57;;;6.10;97.30;;;;;;5072798;28;20179;-86
2022/02/20 05:27:15;;;;;;;4.13;1.70;;;6.10;97.30;;;;;;5054444;28;20252;-86
2022/02/20 05:29:41;;;;;;;5.23;1.63;;;6.10;97.30;;;;;;5054710;28;20478;-86
2022/02/20 05:32:07;;;;;;;3.50;2.20;;;6.10;97.30;;;;;;5072388;28;20629;-86
2022/02/20 05:34:33;;;;;;;5.10;2.13;;;6.10;97.30;;;;;;5054958;28;20254;-86
2022/02/20 05:36:58;;;;;;;3.27;1.80;;;6.10;97.30;;;;;;5054641;28;20513;-85
2022/02/20 05:39:24;;;;;;;5.67;1.50;;;6.20;97.30;;;;;;5055270;28;20175;-86
2022/02/20 05:41:49;;;;;;;3.20;1.90;;;6.20;97.30;;;;;;5054661;28;20210;-87
2022/02/20 05:44:15;;;;;;;2.03;1.60;;;6.10;97.30;;;;;;5054654;28;20229;-86
2022/02/20 05:46:40;;;;;;;2.53;1.70;;;6.10;97.30;;;;;;5054304;28;20739;-85
2022/02/20 05:49:06;;;;;;;5.47;2.10;;;6.10;97.30;;;;;;5072620;28;20607;-86
2022/02/20 05:51:32;;;;;;;3.20;1.90;;;6.10;97.30;;;;;;5061012;28;20182;-86
2022/02/20 05:53:57;;;;;;;2.30;1.50;;;6.10;97.30;;;;;;5054416;28;20264;-86
2022/02/20 05:56:23;;;;;;;2.13;1.83;;;6.10;97.30;;;;;;5072775;28;20505;-86
2022/02/20 05:58:48;;;;;;;2.30;1.53;;;6.10;97.30;;;;;;5054529;28;20199;-85
2022/02/20 06:01:19;;;;;;;4.90;1.90;;;6.10;97.30;;;;;;5054547;28;20171;-86
2022/02/20 06:03:45;;;;;;;1.70;1.60;;;6.10;97.30;;;;;;5054276;28;20187;-86
2022/02/20 06:06:10;;;;;;;3.83;1.60;;;6.10;97.30;;;;;;5054335;28;20927;-87
2022/02/20 06:08:35;;;;;;;1.70;1.60;;;6.10;97.30;;;;;;5054375;28;20175;-86
2022/02/20 06:11:01;;;;;;;1.50;1.40;;;6.10;97.30;;;;;;5054166;28;20183;-85
2022/02/20 06:13:26;;;;;;;4.03;1.70;;;6.10;97.30;;;;;;5055840;28;20209;-87
2022/02/20 06:15:52;;;;;;;7.90;2.43;;;6.10;97.30;;;;;;5059682;28;20179;-86
2022/02/20 06:18:18;;;;;;;3.37;2.10;;;6.10;97.30;;;;;;5060918;28;20198;-86
2022/02/20 06:20:43;;;;;;;5.40;2.00;;;6.20;97.30;;;;;;5060075;28;20413;-86
2022/02/20 06:23:09;;;;;;;4.13;2.10;;;6.10;97.30;;;;;;5061944;28;20567;-86
2022/02/20 06:25:34;;;;;;;1.80;1.70;;;6.10;97.30;;;;;;5058403;28;20179;-86
2022/02/20 06:28:00;;;;;;;4.10;1.80;;;6.10;97.30;;;;;;5058238;28;20172;-86
2022/02/20 06:30:25;;;;;;;3.27;2.00;;;6.10;97.30;;;;;;5057987;28;20968;-86
2022/02/20 06:32:51;;;;;;;5.30;1.70;;;6.10;97.30;;;;;;5058003;28;20313;-86
2022/02/20 06:35:16;;;;;;;3.27;1.80;;;6.10;97.30;;;;;;5058531;28;20187;-86
2022/02/20 06:37:42;;;;;;;1.77;1.70;;;6.20;97.30;;;;;;5057977;28;20241;-86
2022/02/20 06:40:08;;;;;;;3.67;1.63;;;6.20;97.30;;;;;;5061102;28;20175;-87
2022/02/20 06:42:34;;;;;;;6.00;1.50;;;6.20;97.30;;;;;;5066129;28;20202;-86
2022/02/20 06:44:59;;;;;;;2.33;1.80;;;6.20;97.30;;;;;;5070243;28;20468;-86
2022/02/20 06:47:25;;;;;;;9.83;2.57;;;6.30;97.30;;;;;;5061142;28;20259;-86
2022/02/20 06:49:50;;;;;;;4.63;1.67;;;6.30;97.30;;;;;;5057876;28;20206;-85
2022/02/20 06:52:16;;;;;;;3.90;1.80;;;6.30;97.30;;;;;;5057543;28;20203;-86
2022/02/20 06:54:42;;;;;;;4.87;2.47;;;6.30;97.30;;;;;;5057817;28;20334;-86
2022/02/20 06:57:07;;;;;;;3.00;2.10;;;6.30;97.30;;;;;;5057221;28;20728;-86
2022/02/20 06:59:33;;;;;;;10.47;2.30;;;6.30;97.30;;;;;;5057283;28;20183;-86
2022/02/20 07:01:58;;;;;;;10.10;1.90;;;6.30;97.30;;;;;;5057584;28;20191;-86
2022/02/20 07:04:24;;;;;;;1.70;1.70;;;6.30;97.30;;;;;;5057388;28;20178;-85
2022/02/20 07:06:49;;;;;;;2.10;2.00;;;6.30;97.30;;;;;;5075437;28;20178;-86
2022/02/20 07:09:15;;;;;;;2.20;2.00;;;6.40;97.30;;;;;;5075538;28;20652;-86
2022/02/20 07:11:42;;;;;;;2.47;2.30;;;6.40;97.30;;;;;;5057244;28;20663;-86
2022/02/20 07:14:07;;;;;;;2.20;2.00;;;6.40;97.30;;;;;;5056975;28;20292;-87
2022/02/20 07:16:33;;;;;;;2.23;2.10;;;6.40;97.30;;;;;;5057224;28;20892;-86
2022/02/20 07:18:59;;;;;;;5.20;2.87;;;6.40;97.30;;;;;;5056820;28;20195;-86
2022/02/20 07:21:25;;;;;;;6.23;2.50;;;6.40;97.30;;;;;;5057361;28;20167;-86
2022/02/20 07:23:52;;;;;;;6.40;2.50;;;6.40;97.30;;;;;;5056574;28;20424;-86
2022/02/20 07:26:17;;;;;;;2.87;2.23;;;6.40;97.30;;;;;;5057105;28;20413;-86
2022/02/20 07:28:43;;;;;;;10.03;2.50;;;6.40;97.30;;;;;;5056854;28;20429;-86
2022/02/20 07:31:09;;;;;;;4.00;2.70;;;6.50;97.30;;;;;;5056754;28;20182;-86
2022/02/20 07:33:34;;;;;;;5.07;2.40;;;6.50;97.30;;;;;;5056687;28;20395;-86
2022/02/20 07:36:00;;;;;;;5.20;2.80;;;6.50;97.30;;;;;;5075063;28;20175;-86
2022/02/20 07:38:25;;;;;;;2.33;2.13;;;6.50;97.30;;;;;;5056989;28;20203;-86
2022/02/20 07:40:51;;;;;;;6.20;2.97;;;6.50;97.30;;;;;;5056721;28;20217;-86
2022/02/20 07:43:17;;;;;;;2.47;1.97;;;6.40;97.30;;;;;;5056532;28;20241;-85
2022/02/20 07:45:42;;;;;;;3.67;2.37;;;6.40;97.30;;;;;;5076392;28;20238;-86
2022/02/20 07:48:08;;;;;;;4.13;2.73;;;6.40;97.30;;;;;;5061655;28;20282;-86
2022/02/20 07:50:36;;;;;;;3.13;2.50;;;6.40;97.30;;;;;;5057217;28;20183;-86
2022/02/20 07:53:04;;;;;;;7.63;3.17;;;6.50;97.30;;;;;;5056981;28;20720;-86
2022/02/20 07:55:30;;;;;;;4.20;2.30;;;6.50;97.30;;;;;;5056916;28;20904;-86
2022/02/20 07:57:56;;;;;;;6.00;2.90;;;6.60;97.30;;;;;;5056506;28;20457;-87
2022/02/20 08:00:30;;;;;;;2.97;2.20;;;6.70;97.30;;;;;;5055900;28;20930;-86
2022/02/20 08:02:56;;;;;;;3.10;2.40;;;6.70;97.30;;;;;;5056841;28;20446;-85
2022/02/20 08:05:21;;;;;;;2.27;2.10;;;6.70;97.20;;;;;;5056180;28;20417;-87
2022/02/20 08:07:47;;;;;;;2.83;2.10;;;6.70;97.00;;;;;;5074291;28;20436;-86
2022/02/20 08:10:12;;;;;;;3.00;2.50;;;6.80;97.30;;;;;;5056063;28;20262;-86
2022/02/20 08:12:38;;;;;;;4.43;2.17;;;6.80;97.10;;;;;;5056331;28;20206;-87
2022/02/20 08:15:04;;;;;;;3.83;2.40;;;6.90;97.10;;;;;;5056128;28;20258;-86
2022/02/20 08:17:30;;;;;;;3.10;2.37;;;6.90;96.90;;;;;;5055976;28;20199;-87
2022/02/20 08:19:55;;;;;;;2.63;2.43;;;6.90;96.60;;;;;;5055819;28;20538;-88
2022/02/20 08:22:21;;;;;;;3.53;2.40;;;7.00;96.50;;;;;;5071307;28;20198;-86
2022/02/20 08:24:47;;;;;;;3.80;2.33;;;7.10;96.30;;;;;;5068414;28;20175;-87
2022/02/20 08:27:14;;;;;;;2.50;2.30;;;7.20;96.00;;;;;;5045464;28;20184;-86
2022/02/20 08:29:40;;;;;;;2.63;1.70;;;7.30;95.90;;;;;;5056866;28;20268;-86
2022/02/20 08:32:06;;;;;;;3.37;1.93;;;7.20;94.60;;;;;;5052925;28;20480;-86
2022/02/20 08:34:33;;;;;;;2.77;2.03;;;7.30;94.60;;;;;;5049132;28;20429;-87
2022/02/20 08:37:00;;;;;;;1.83;1.70;;;7.20;94.60;;;;;;5045332;28;20807;-86
2022/02/20 08:39:27;;;;;;;3.33;1.83;;;7.20;94.60;;;;;;5057953;28;20839;-86
2022/02/20 08:41:53;;;;;;;2.80;1.93;;;7.20;94.80;;;;;;5066390;28;20470;-87
2022/02/20 08:44:18;;;;;;;2.53;2.00;;;7.30;94.80;;;;;;5051566;28;20497;-85
2022/02/20 08:46:43;;;;;;;5.30;2.17;;;7.30;94.60;;;;;;5056086;28;20195;-87
2022/02/20 08:49:09;;;;;;;3.33;2.40;;;7.30;94.60;;;;;;5067317;28;20237;-87
2022/02/20 08:51:35;;;;;;;3.83;2.23;;;7.30;94.70;;;;;;5053422;28;20183;-87
2022/02/20 08:54:00;;;;;;;2.00;1.57;;;7.30;95.00;;;;;;5049226;28;20214;-86
2022/02/20 08:56:26;;;;;;;2.37;2.13;;;7.30;94.20;;;;;;5055275;28;20194;-87
2022/02/20 08:58:55;;;;;;;2.10;1.70;;;7.40;94.70;;;;;;5068214;28;20199;-87
2022/02/20 09:01:23;;;;;;;6.87;2.20;;;7.50;95.00;;;;;;5038336;28;20886;-86
2022/02/20 09:03:49;;;;;;;6.20;2.10;;;7.70;95.00;;;;;;5055459;28;20837;-86
2022/02/20 09:06:14;;;;;;;3.33;2.17;;;7.70;94.40;;;;;;5055076;28;20427;-86
2022/02/20 09:08:40;;;;;;;5.53;2.23;;;7.80;94.20;;;;;;5052699;28;20194;-86
2022/02/20 09:11:06;;;;;;;3.60;2.13;;;7.80;94.00;;;;;;5051092;28;20180;-86
2022/02/20 09:13:31;;;;;;;2.40;2.10;;;7.90;93.90;;;;;;5046343;28;20982;-85
2022/02/20 09:15:57;;;;;;;3.57;2.03;;;7.90;93.70;;;;;;5055215;28;20271;-86
2022/02/20 09:18:22;;;;;;;3.67;2.13;;;7.90;94.10;;;;;;5054743;28;20198;-87
2022/02/20 09:20:48;;;;;;;4.13;2.10;;;8.00;93.80;;;;;;5056099;28;20649;-86
2022/02/20 09:23:14;;;;;;;3.00;2.50;;;7.90;93.60;;;;;;5055315;28;20285;-86
2022/02/20 09:25:41;;;;;;;6.27;2.33;;;7.80;93.90;;;;;;5054903;28;20254;-86
2022/02/20 09:28:07;;;;;;;2.87;2.27;;;7.70;94.00;;;;;;5054569;28;20187;-86
2022/02/20 09:30:32;;;;;;;3.13;2.53;;;7.70;94.20;;;;;;5054500;28;20414;-87
2022/02/20 09:32:58;;;;;;;2.43;2.23;;;7.70;94.40;;;;;;5057808;28;20225;-86
2022/02/20 09:35:25;;;;;;;7.90;2.50;;;7.60;94.60;;;;;;5063970;28;20676;-86
2022/02/20 09:37:51;;;;;;;5.67;2.40;;;7.70;95.10;;;;;;5054780;28;20203;-87
2022/02/20 09:40:17;;;;;;;4.50;2.83;;;7.70;95.40;;;;;;5054553;28;20504;-86
2022/02/20 09:42:43;;;;;;;6.73;2.80;;;7.80;95.30;;;;;;5055407;28;20202;-86
2022/02/20 09:45:08;;;;;;;5.33;2.63;;;7.70;95.30;;;;;;5076201;28;20175;-87
2022/02/20 09:47:39;;;;;;;3.97;2.47;;;7.70;95.60;;;;;;5054194;28;20449;-86
2022/02/20 09:50:05;;;;;;;5.87;2.93;;;7.70;95.70;;;;;;5054983;28;20487;-87
2022/02/20 09:52:31;;;;;;;5.83;3.30;;;7.60;96.00;;;;;;5054446;28;20449;-87
2022/02/20 09:54:57;;;;;;;9.83;3.30;;;7.60;96.50;;;;;;5054757;28;20448;-87
2022/02/20 09:57:22;;;;;;;5.87;2.60;;;7.60;97.00;;;;;;5055056;28;20489;-86
2022/02/20 09:59:48;;;;;;;15.53;5.30;;;7.50;97.30;;;;;;5054867;28;20175;-87
2022/02/20 10:02:16;;;;;;;7.73;3.37;;;7.50;97.30;;;;;;5054875;28;20230;-86
2022/02/20 10:04:44;;;;;;;10.33;3.37;;;7.40;97.30;;;;;;5054530;28;20217;-86
2022/02/20 10:07:29;;;;;;;9.33;3.03;;;7.40;97.30;;;;;;5054528;28;20449;-86
2022/02/20 10:09:56;;;;;;;10.53;2.70;;;7.40;97.30;;;;;;5057587;28;20425;-85
2022/02/20 10:12:25;;;;;;;9.00;3.37;;;7.40;97.30;;;;;;5057025;28;20437;-86
2022/02/20 10:14:50;;;;;;;5.63;2.47;;;7.40;97.30;;;;;;5054034;28;20425;-86
2022/02/20 10:17:19;;;;;;;7.67;2.77;;;7.40;97.30;;;;;;5054511;28;20461;-86
2022/02/20 10:19:59;;;;;;;5.60;2.87;;;7.40;97.30;;;;;;5054097;28;20171;-87
2022/02/20 10:22:33;;;;;;;5.73;2.50;;;7.30;97.30;;;;;;5054108;28;20444;-85
2022/02/20 10:25:11;;;;;;;8.87;3.43;;;7.30;97.30;;;;;;5054492;28;20417;-86
2022/02/20 10:27:52;;;;;;;7.13;2.93;;;7.30;97.30;;;;;;5054546;28;20421;-85
2022/02/20 10:30:23;;;;;;;5.33;3.03;;;7.30;97.30;;;;;;5054346;28;20413;-86
2022/02/20 10:33:05;;;;;;;10.57;4.37;;;7.40;97.30;;;;;;5054022;28;21002;-86
2022/02/20 10:35:34;;;;;;;9.57;3.80;;;7.40;97.30;;;;;;5054524;28;20460;-87
2022/02/20 10:38:20;;;;;;;18.77;3.87;;;7.40;97.30;;;;;;5054283;28;20495;-86
2022/02/20 10:40:51;;;;;;;4.10;2.50;;;7.40;97.30;;;;;;5072107;28;20410;-86
2022/02/20 10:43:34;;;;;;;4.67;2.37;;;7.50;97.30;;;;;;5054413;28;20437;-85
2022/02/20 10:46:20;;;;;;;8.13;2.43;;;7.50;97.30;;;;;;5054114;28;20414;-85
2022/02/20 10:48:53;;;;;;;3.87;2.53;;;7.50;97.30;;;;;;5054231;28;20792;-86
2022/02/20 10:51:20;;;;;;;5.43;2.40;;;7.40;97.30;;;;;;5054612;28;20410;-85
2022/02/20 10:53:48;;;;;;;9.83;3.00;;;7.40;97.30;;;;;;5055051;28;20788;-86
2022/02/20 10:56:14;;;;;;;5.10;2.57;;;7.40;97.30;;;;;;5055352;28;20509;-86
2022/02/20 10:58:43;;;;;;;6.20;2.70;;;7.40;97.30;;;;;;5055012;28;20527;-85
2022/02/20 11:01:27;;;;;;;4.90;2.57;;;7.40;97.30;;;;;;5058720;28;20472;-86
2022/02/20 11:04:10;;;;;;;5.20;2.10;;;7.40;97.30;;;;;;5059719;28;20923;-87
2022/02/20 11:06:40;;;;;;;7.53;2.80;;;7.40;97.30;;;;;;5059005;28;20448;-87
2022/02/20 11:09:07;;;;;;;16.83;5.20;;;7.40;97.30;;;;;;5058820;28;20456;-87
2022/02/20 11:11:42;;;;;;;3.77;2.43;;;7.50;97.30;;;;;;5058449;28;20417;-86
2022/02/20 11:14:21;;;;;;;6.87;2.80;;;7.50;97.30;;;;;;5058715;28;20420;-86
2022/02/20 11:16:52;;;;;;;18.10;2.73;;;7.50;97.30;;;;;;5059750;28;20424;-87
2022/02/20 11:19:27;;;;;;;6.97;2.57;;;7.50;97.30;;;;;;5077428;28;20479;-86
2022/02/20 11:21:58;;;;;;;4.80;2.10;;;7.50;97.30;;;;;;5058408;28;20425;-86
2022/02/20 11:24:27;;;;;;;2.23;1.90;;;7.50;97.30;;;;;;5059813;28;20417;-86
2022/02/20 11:26:54;;;;;;;2.70;2.00;;;7.50;97.30;;;;;;5060132;28;20409;-86
2022/02/20 11:29:20;;;;;;;10.93;2.33;;;7.40;97.30;;;;;;5059499;28;20428;-86
2022/02/20 11:31:47;;;;;;;5.70;2.10;;;7.40;97.30;;;;;;5059122;28;20501;-86
2022/02/20 11:34:13;;;;;;;3.43;1.90;;;7.40;97.30;;;;;;5058809;28;20426;-86
2022/02/20 11:36:50;;;;;;;4.93;2.20;;;7.40;97.30;;;;;;5058943;28;20485;-87
2022/02/20 11:39:15;;;;;;;5.57;1.70;;;7.40;97.30;;;;;;5059971;28;20449;-86
2022/02/20 11:42:01;;;;;;;3.43;1.87;;;7.40;97.30;;;;;;5063724;28;20422;-86
2022/02/20 11:44:27;;;;;;;1.47;1.43;;;7.50;97.30;;;;;;5057754;28;20226;-87
2022/02/20 11:46:54;;;;;;;2.90;1.50;;;7.50;97.30;;;;;;5058061;28;21074;-86
2022/02/20 11:49:26;;;;;;;5.57;1.50;;;7.60;97.30;;;;;;5074710;28;20467;-85
2022/02/20 11:52:05;;;;;;;4.40;1.60;;;7.60;97.30;;;;;;5062803;28;20856;-86
2022/02/20 11:54:39;;;;;;;9.63;1.90;;;7.70;97.30;;;;;;5036825;28;20485;-86
2022/02/20 11:57:18;;;;;;;5.60;1.27;;;7.70;97.30;;;;;;5040773;28;20472;-87
2022/02/20 12:00:02;;;;;;;4.27;1.80;;;7.70;97.30;;;;;;5074012;28;20401;-86
2022/02/20 12:02:29;;;;;;;7.40;2.70;;;7.70;97.30;;;;;;5055631;28;20448;-86
2022/02/20 12:04:54;;;;;;;3.67;2.13;;;7.70;97.30;;;;;;5052773;28;20414;-86
2022/02/20 12:07:44;;;;;;;4.00;1.80;;;7.70;97.30;;;;;;5055158;28;20483;-86
2022/02/20 12:11:05;;;;;;;4.10;2.00;;;7.70;97.30;;;;;;5049676;28;20188;-85
2022/02/20 12:13:31;;;;;;;1.90;1.43;;;7.80;97.30;;;;;;5038332;28;20476;-87
2022/02/20 12:15:58;;;;;;;3.60;1.70;;;7.80;97.30;;;;;;5048429;28;20949;-86
2022/02/20 12:18:26;;;;;;;1.60;1.30;;;7.80;97.30;;;;;;5052818;28;20211;-87
2022/02/20 12:20:51;;;;;;;2.40;2.10;;;7.80;97.30;;;;;;5044093;28;20421;-87
2022/02/20 12:23:33;;;;;;;1.77;1.20;;;7.90;97.30;;;;;;5062033;28;20481;-87
2022/02/20 12:26:00;;;;;;;2.23;1.40;;;7.90;97.30;;;;;;5038594;28;20190;-86
2022/02/20 12:28:37;;;;;;;1.30;1.30;;;7.90;97.30;;;;;;5062061;28;20422;-87
2022/02/20 12:31:14;;;;;;;3.20;1.47;;;7.90;97.30;;;;;;5044198;28;20426;-86
2022/02/20 12:33:48;;;;;;;1.63;1.27;;;8.00;97.30;;;;;;5048312;28;20472;-87
2022/02/20 12:36:23;;;;;;;1.30;1.23;;;8.00;97.30;;;;;;5051452;28;21136;-86
2022/02/20 12:38:51;;;;;;;3.63;1.30;;;8.10;97.30;;;;;;5057514;28;20552;-86
2022/02/20 12:41:16;;;;;;;2.63;1.50;;;8.10;97.30;;;;;;5071104;28;20414;-86
2022/02/20 12:43:50;;;;;;;1.53;1.30;;;8.10;97.30;;;;;;5073399;28;20973;-86
2022/02/20 12:46:16;;;;;;;1.67;1.20;;;8.20;97.30;;;;;;5072451;28;20207;-85
2022/02/20 12:48:42;;;;;;;2.03;1.00;;;8.20;97.30;;;;;;5072867;28;20453;-86
2022/02/20 12:51:09;;;;;;;2.37;1.40;;;8.30;97.30;;;;;;5072941;28;20193;-86
2022/02/20 12:53:35;;;;;;;1.03;0.93;;;8.30;97.30;;;;;;5058116;28;20733;-86
2022/02/20 12:56:04;;;;;;;0.70;0.70;;;8.40;97.30;;;;;;5053679;28;20452;-86
2022/02/20 12:58:29;;;;;;;1.63;1.10;;;8.40;97.30;;;;;;5055195;28;20207;-85